Time;durP1;ratioP1;P1;durP2;ratioP2;P2;SDS_P1;SDS_P2;PMS_P1;PMS_P2;Temp;Humidity;BMP_temperature;BMP_pressure;BME280_temperature;BME280_humidity;BME280_pressure;Samples;Min_cycle;Max_cycle;Signal;HPM_P1;HPM_P2
2021/12/05 00:16:54;;;;;;;34.17;19.83;;;5.90;99.90;;;;;;6183168;23;20005;-73
2021/12/05 00:22:58;;;;;;;30.08;18.38;;;5.90;99.90;;;;;;6188391;23;20005;-73
2021/12/05 00:25:29;;;;;;;27.25;19.05;;;5.90;99.90;;;;;;6185232;23;20029;-73
2021/12/05 00:34:01;;;;;;;29.83;18.40;;;5.90;99.90;;;;;;6185622;23;20441;-73
2021/12/05 01:07:57;;;;;;;33.70;21.58;;;6.00;99.90;;;;;;6187777;23;20009;-73
2021/12/05 01:15:41;;;;;;;29.55;18.80;;;6.00;99.90;;;;;;6185177;23;20009;-73
2021/12/05 01:18:12;;;;;;;33.22;20.58;;;5.90;99.90;;;;;;6184964;23;20001;-73
2021/12/05 01:20:42;;;;;;;32.40;19.73;;;5.90;99.90;;;;;;6185021;23;20085;-73
2021/12/05 01:23:21;;;;;;;31.40;19.98;;;5.90;99.90;;;;;;6183269;23;20016;-73
2021/12/05 01:37:04;;;;;;;32.45;19.02;;;5.90;99.90;;;;;;6185805;23;20063;-73
2021/12/05 02:43:29;;;;;;;31.30;20.73;;;5.70;99.90;;;;;;6184125;23;20016;-80
2021/12/05 02:45:59;;;;;;;30.88;19.42;;;5.70;99.90;;;;;;6182498;23;20007;-81
2021/12/05 02:48:27;;;;;;;34.85;20.92;;;5.70;99.90;;;;;;6182657;23;20008;-80
2021/12/05 02:50:53;;;;;;;33.97;20.75;;;5.70;99.90;;;;;;6181368;23;20310;-80
2021/12/05 02:53:27;;;;;;;35.90;21.35;;;5.70;99.90;;;;;;6184004;23;20005;-81
2021/12/05 02:55:53;;;;;;;34.25;20.38;;;5.70;99.90;;;;;;6182654;23;20031;-80
2021/12/05 02:58:31;;;;;;;31.83;20.42;;;5.70;99.90;;;;;;6183036;23;20005;-80
2021/12/05 03:03:28;;;;;;;37.03;22.10;;;5.70;99.90;;;;;;6185726;23;20025;-81
2021/12/05 03:06:03;;;;;;;36.40;23.52;;;5.70;99.90;;;;;;6185371;23;20342;-81
2021/12/05 03:08:29;;;;;;;37.53;23.15;;;5.70;99.90;;;;;;6183922;23;20016;-79
2021/12/05 03:10:59;;;;;;;36.72;23.45;;;5.70;99.90;;;;;;6185555;23;20000;-81
2021/12/05 03:13:24;;;;;;;35.95;21.27;;;5.70;99.90;;;;;;6185429;23;20012;-80
2021/12/05 03:15:51;;;;;;;29.52;20.40;;;5.70;99.90;;;;;;6185551;23;20337;-80
2021/12/05 03:18:16;;;;;;;33.15;20.88;;;5.60;99.90;;;;;;6183754;23;20079;-80
2021/12/05 03:20:42;;;;;;;28.42;19.42;;;5.60;99.90;;;;;;6183831;23;20445;-81
2021/12/05 03:23:08;;;;;;;31.35;21.20;;;5.60;99.90;;;;;;6183673;23;20001;-81
2021/12/05 03:25:34;;;;;;;35.35;21.38;;;5.60;99.90;;;;;;6183639;23;20009;-80
2021/12/05 03:28:01;;;;;;;38.50;22.50;;;5.60;99.90;;;;;;6185256;23;20076;-81
2021/12/05 03:30:27;;;;;;;34.28;21.50;;;5.60;99.90;;;;;;6184720;23;20001;-80
2021/12/05 03:32:56;;;;;;;29.08;20.08;;;5.60;99.90;;;;;;6184572;23;20005;-80
2021/12/05 03:35:27;;;;;;;35.05;20.55;;;5.60;99.90;;;;;;6184316;23;20340;-81
2021/12/05 03:37:53;;;;;;;31.77;19.85;;;5.70;99.90;;;;;;6184588;23;19998;-80
2021/12/05 03:40:22;;;;;;;31.85;20.30;;;5.60;99.90;;;;;;6183372;23;20036;-81
2021/12/05 03:42:49;;;;;;;30.15;20.35;;;5.60;99.90;;;;;;6184321;23;20421;-80
2021/12/05 03:45:20;;;;;;;29.98;19.88;;;5.60;99.90;;;;;;6182930;23;20012;-80
2021/12/05 03:47:47;;;;;;;36.30;20.30;;;5.60;99.90;;;;;;6183468;23;20015;-80
2021/12/05 03:50:14;;;;;;;32.90;20.42;;;5.60;99.90;;;;;;6183303;23;20132;-80
2021/12/05 03:52:40;;;;;;;32.47;20.88;;;5.60;99.90;;;;;;6182128;23;20057;-81
2021/12/05 03:55:09;;;;;;;31.95;20.23;;;5.60;99.90;;;;;;6181374;23;20009;-81
2021/12/05 03:57:36;;;;;;;31.20;19.63;;;5.60;99.90;;;;;;6183403;23;20008;-81
2021/12/05 04:00:12;;;;;;;28.35;19.70;;;5.60;99.90;;;;;;6181489;23;20337;-81
2021/12/05 04:02:38;;;;;;;30.58;20.33;;;5.60;99.90;;;;;;6181503;23;20067;-81
2021/12/05 04:05:04;;;;;;;32.53;19.25;;;5.60;99.90;;;;;;6181186;23;20005;-80
2021/12/05 04:07:30;;;;;;;31.83;19.55;;;5.60;99.90;;;;;;6182980;23;20011;-80
2021/12/05 04:09:56;;;;;;;30.10;20.38;;;5.60;99.90;;;;;;6183039;23;20025;-80
2021/12/05 04:12:22;;;;;;;31.50;20.15;;;5.60;99.90;;;;;;6181807;23;20160;-80
2021/12/05 04:14:54;;;;;;;30.67;18.83;;;5.60;99.90;;;;;;6182994;23;20013;-81
2021/12/05 04:17:20;;;;;;;28.92;18.85;;;5.60;99.90;;;;;;6181670;23;20005;-80
2021/12/05 04:19:46;;;;;;;29.55;19.92;;;5.60;99.90;;;;;;6183124;23;20381;-80
2021/12/05 04:22:12;;;;;;;30.50;19.00;;;5.50;99.90;;;;;;6183407;23;20001;-80
2021/12/05 04:24:39;;;;;;;29.15;20.27;;;5.40;99.90;;;;;;6183038;23;20599;-80
2021/12/05 04:27:06;;;;;;;33.25;21.02;;;5.40;99.90;;;;;;6181688;23;20009;-80
2021/12/05 04:29:33;;;;;;;31.98;21.10;;;5.40;99.90;;;;;;6181662;23;20009;-80
2021/12/05 04:32:00;;;;;;;31.92;20.83;;;5.40;99.90;;;;;;6183323;23;20005;-80
2021/12/05 04:34:29;;;;;;;31.13;21.45;;;5.40;99.90;;;;;;6181143;23;20016;-79
2021/12/05 04:36:58;;;;;;;31.95;20.50;;;5.40;99.90;;;;;;6183078;23;20001;-80
2021/12/05 04:39:28;;;;;;;36.95;22.30;;;5.40;99.90;;;;;;6183197;23;20004;-80
2021/12/05 04:41:55;;;;;;;31.08;20.58;;;5.40;99.90;;;;;;6183193;23;20315;-80
2021/12/05 04:44:22;;;;;;;34.90;21.33;;;5.40;99.90;;;;;;6183752;23;20052;-81
2021/12/05 04:46:48;;;;;;;31.98;21.00;;;5.40;99.90;;;;;;6184727;23;20005;-80
2021/12/05 04:49:15;;;;;;;31.35;21.05;;;5.50;99.90;;;;;;6183197;23;20062;-80
2021/12/05 04:51:43;;;;;;;29.25;20.38;;;5.50;99.90;;;;;;6184645;23;20009;-81
2021/12/05 04:54:17;;;;;;;31.45;20.70;;;5.50;99.90;;;;;;6183257;23;20087;-80
2021/12/05 04:56:45;;;;;;;33.60;21.42;;;5.50;99.90;;;;;;6184994;23;20001;-80
2021/12/05 04:59:13;;;;;;;34.33;21.58;;;5.50;99.90;;;;;;6184144;23;20001;-80
2021/12/05 05:01:41;;;;;;;33.95;20.70;;;5.60;99.90;;;;;;6183349;23;19997;-80
2021/12/05 05:04:17;;;;;;;32.85;20.63;;;5.60;99.90;;;;;;6184903;23;20437;-80
2021/12/05 05:06:43;;;;;;;33.20;20.77;;;5.50;99.90;;;;;;6183808;23;20008;-80
2021/12/05 05:09:09;;;;;;;30.95;20.27;;;5.60;99.90;;;;;;6181114;23;20005;-80
2021/12/05 05:11:35;;;;;;;36.53;21.17;;;5.60;99.90;;;;;;6182493;23;20130;-80
2021/12/05 05:14:00;;;;;;;32.47;21.35;;;5.60;99.90;;;;;;6182525;23;20461;-80
2021/12/05 05:16:26;;;;;;;31.85;21.60;;;5.60;99.90;;;;;;6182407;23;20001;-80
2021/12/05 05:18:58;;;;;;;34.70;21.52;;;5.60;99.90;;;;;;6182493;23;20007;-80
2021/12/05 05:50:57;;;;;;;34.88;21.10;;;5.60;99.90;;;;;;6185008;23;20009;-80
2021/12/05 05:53:23;;;;;;;32.05;20.38;;;5.50;99.90;;;;;;6184149;23;20001;-80
2021/12/05 05:55:51;;;;;;;31.15;20.85;;;5.50;99.90;;;;;;6182800;23;20009;-80
2021/12/05 05:58:19;;;;;;;33.33;20.63;;;5.50;99.90;;;;;;6184604;23;20493;-80
2021/12/05 06:01:32;;;;;;;34.60;20.42;;;5.50;99.90;;;;;;6184492;23;19997;-80
2021/12/05 06:03:39;;;;;;;34.72;20.98;;;5.40;99.90;;;;;;6182720;23;20045;-81
2021/12/05 06:06:07;;;;;;;29.90;20.38;;;5.40;99.90;;;;;;6182979;23;20027;-80
2021/12/05 06:08:36;;;;;;;32.03;20.98;;;5.40;99.90;;;;;;6184214;23;20003;-80
2021/12/05 06:11:05;;;;;;;36.33;21.80;;;5.40;99.90;;;;;;6184012;23;19997;-80
2021/12/05 06:13:32;;;;;;;34.83;21.08;;;5.50;99.90;;;;;;6184081;23;20008;-80
2021/12/05 06:15:59;;;;;;;31.50;20.35;;;5.40;99.90;;;;;;6184355;23;20061;-80
2021/12/05 06:18:25;;;;;;;32.88;21.15;;;5.50;99.90;;;;;;6184286;23;20024;-80
2021/12/05 06:20:52;;;;;;;30.70;19.85;;;5.50;99.90;;;;;;6184252;23;20008;-80
2021/12/05 06:23:18;;;;;;;30.02;20.00;;;5.50;99.90;;;;;;6184086;23;20001;-80
2021/12/05 06:25:47;;;;;;;31.95;20.83;;;5.50;99.90;;;;;;6184717;23;20033;-80
2021/12/05 06:28:14;;;;;;;30.95;20.85;;;5.50;99.90;;;;;;6183078;23;20011;-80
2021/12/05 06:30:54;;;;;;;30.50;20.35;;;5.50;99.90;;;;;;6182741;23;20016;-81
2021/12/05 06:41:34;;;;;;;33.40;21.15;;;5.50;99.90;;;;;;6186354;23;20329;-81
2021/12/05 06:46:38;;;;;;;33.47;21.83;;;5.50;99.90;;;;;;6186326;23;20017;-81
2021/12/05 06:49:04;;;;;;;31.25;22.13;;;5.50;99.90;;;;;;6182736;23;20012;-81
2021/12/05 06:51:30;;;;;;;30.48;21.38;;;5.50;99.90;;;;;;6184135;23;20007;-80
2021/12/05 06:53:57;;;;;;;31.92;20.90;;;5.50;99.90;;;;;;6184254;23;20088;-81
2021/12/05 06:56:23;;;;;;;26.48;18.73;;;5.40;99.90;;;;;;6184348;23;19997;-80
2021/12/05 06:58:50;;;;;;;28.15;19.88;;;5.30;99.90;;;;;;6184773;23;20011;-80
2021/12/05 07:01:17;;;;;;;31.60;19.63;;;5.30;99.90;;;;;;6184627;23;19997;-80
2021/12/05 07:03:45;;;;;;;28.65;19.42;;;5.30;99.90;;;;;;6182726;23;20449;-80
2021/12/05 07:06:20;;;;;;;32.75;19.85;;;5.20;99.90;;;;;;6183338;23;20337;-80
2021/12/05 07:08:47;;;;;;;33.55;20.35;;;5.20;99.90;;;;;;6183126;23;20008;-79
2021/12/05 07:24:51;;;;;;;31.17;21.27;;;5.10;99.90;;;;;;6186808;23;20013;-80
2021/12/05 07:40:27;;;;;;;31.25;20.42;;;5.10;99.90;;;;;;6183731;23;20100;-80
2021/12/05 07:42:58;;;;;;;34.33;22.30;;;5.10;99.90;;;;;;6183565;23;20008;-80
2021/12/05 07:45:33;;;;;;;32.45;21.55;;;5.20;99.90;;;;;;6182023;23;20604;-81
2021/12/05 07:48:06;;;;;;;33.83;20.75;;;5.20;99.90;;;;;;6182292;23;20013;-80
2021/12/05 07:51:10;;;;;;;31.00;21.75;;;5.20;99.90;;;;;;6182228;23;20009;-80
2021/12/05 07:53:33;;;;;;;34.35;21.38;;;5.30;99.90;;;;;;6180491;23;20087;-79
2021/12/05 07:56:08;;;;;;;32.05;20.88;;;5.20;99.90;;;;;;6182008;23;20415;-80
2021/12/05 08:14:51;;;;;;;34.00;21.83;;;5.50;99.90;;;;;;6183555;23;20048;-80
2021/12/05 08:17:19;;;;;;;34.72;21.50;;;5.50;99.90;;;;;;6183546;23;20311;-81
2021/12/05 08:19:46;;;;;;;32.55;21.33;;;5.50;99.90;;;;;;6184404;23;20456;-79
2021/12/05 08:22:12;;;;;;;33.92;22.13;;;5.60;99.90;;;;;;6183761;23;20005;-80
2021/12/05 08:24:42;;;;;;;35.08;22.52;;;5.70;99.90;;;;;;6185305;23;20005;-80
2021/12/05 08:27:13;;;;;;;32.80;21.90;;;5.70;99.90;;;;;;6185356;23;20001;-80
2021/12/05 08:29:50;;;;;;;36.97;21.70;;;5.70;99.90;;;;;;6183533;23;20561;-79
2021/12/05 10:01:29;;;;;;;19.38;13.40;;;7.40;99.90;;;;;;6184305;23;20100;-81
2021/12/05 10:18:54;;;;;;;0.60;0.50;;;8.70;99.90;;;;;;6186538;23;20288;-81
2021/12/05 10:38:11;;;;;;;1.10;1.10;;;9.00;99.90;;;;;;6183815;23;20043;-81
2021/12/05 10:40:59;;;;;;;1.80;1.70;;;9.10;99.90;;;;;;6182563;23;20087;-81
2021/12/05 10:43:27;;;;;;;0.65;0.65;;;9.10;99.90;;;;;;6182164;23;20009;-81
2021/12/05 10:46:03;;;;;;;0.80;0.80;;;9.20;99.50;;;;;;6182507;23;20354;-81
2021/12/05 10:48:36;;;;;;;3.53;0.63;;;9.30;99.80;;;;;;6184051;23;20091;-81
2021/12/05 10:51:20;;;;;;;1.60;0.50;;;9.30;99.30;;;;;;6183853;23;20078;-81
2021/12/05 10:53:49;;;;;;;1.75;1.55;;;9.30;99.00;;;;;;6182190;23;20005;-80
2021/12/05 10:56:20;;;;;;;0.70;0.70;;;9.40;99.10;;;;;;6184122;23;20001;-82
2021/12/05 10:59:13;;;;;;;0.65;0.65;;;9.50;98.90;;;;;;6184075;23;20002;-81
2021/12/05 11:01:46;;;;;;;0.57;0.57;;;9.50;98.60;;;;;;6183760;23;20001;-81
2021/12/05 11:04:15;;;;;;;3.00;0.70;;;9.50;97.70;;;;;;6183708;23;20020;-82
2021/12/05 11:06:55;;;;;;;0.50;0.50;;;9.40;97.90;;;;;;6181922;23;20334;-81
2021/12/05 11:09:25;;;;;;;0.85;0.50;;;9.40;96.90;;;;;;6184013;23;20001;-81
2021/12/05 11:12:03;;;;;;;0.45;0.45;;;9.50;96.70;;;;;;6182415;23;20019;-82
2021/12/05 11:14:41;;;;;;;0.80;0.80;;;9.60;97.40;;;;;;6181931;23;20008;-81
2021/12/05 11:17:13;;;;;;;1.80;0.35;;;9.60;95.90;;;;;;6182302;23;20092;-81
2021/12/05 11:19:43;;;;;;;0.60;0.50;;;9.60;96.20;;;;;;6183737;23;20005;-81
2021/12/05 11:22:25;;;;;;;0.50;0.50;;;9.50;95.50;;;;;;6183802;23;19989;-82
2021/12/05 11:24:56;;;;;;;1.85;0.50;;;9.50;95.40;;;;;;6183212;23;20314;-81
2021/12/05 11:27:27;;;;;;;0.85;0.85;;;9.60;95.50;;;;;;6181906;23;20322;-81
2021/12/05 11:29:59;;;;;;;0.50;0.50;;;9.50;95.40;;;;;;6182000;23;20004;-81
2021/12/05 11:32:45;;;;;;;1.20;1.00;;;9.50;94.30;;;;;;6182097;23;20342;-81
2021/12/05 11:35:11;;;;;;;0.73;0.73;;;9.50;94.40;;;;;;6182815;23;20363;-81
2021/12/05 11:38:00;;;;;;;1.95;1.23;;;9.50;93.60;;;;;;6183483;23;19997;-81
2021/12/05 11:40:49;;;;;;;0.60;0.60;;;9.50;93.90;;;;;;6183516;23;20012;-82
2021/12/05 11:43:23;;;;;;;0.70;0.43;;;9.60;94.20;;;;;;6182470;23;20540;-81
2021/12/05 11:45:55;;;;;;;1.63;0.73;;;9.60;93.00;;;;;;6182079;23;20013;-81
2021/12/05 11:48:29;;;;;;;1.23;0.60;;;9.70;94.20;;;;;;6182093;23;20401;-81
2021/12/05 11:50:56;;;;;;;0.55;0.47;;;9.70;93.40;;;;;;6183418;23;20318;-82
2021/12/05 11:53:50;;;;;;;5.25;2.60;;;9.60;92.70;;;;;;6182698;23;20009;-82
2021/12/05 11:56:21;;;;;;;1.25;1.15;;;9.60;92.30;;;;;;6183874;23;20084;-73
2021/12/05 11:59:09;;;;;;;3.45;2.10;;;9.60;92.40;;;;;;6185238;23;20376;-73
2021/12/05 12:01:38;;;;;;;2.00;1.80;;;9.60;92.00;;;;;;6185446;23;20001;-75
2021/12/05 12:04:05;;;;;;;1.08;1.00;;;9.60;92.50;;;;;;6183311;23;20040;-74
2021/12/05 12:06:31;;;;;;;1.55;0.70;;;9.60;91.50;;;;;;6185518;23;20389;-73
2021/12/05 12:08:57;;;;;;;1.52;1.38;;;9.60;91.40;;;;;;6185522;23;20025;-73
2021/12/05 12:11:24;;;;;;;0.95;0.90;;;9.60;91.40;;;;;;6185405;23;20163;-73
2021/12/05 12:13:51;;;;;;;0.68;0.63;;;9.60;91.10;;;;;;6185180;23;20005;-74
2021/12/05 12:16:17;;;;;;;0.93;0.90;;;9.60;91.00;;;;;;6185530;23;20047;-74
2021/12/05 12:18:47;;;;;;;0.90;0.68;;;9.60;90.70;;;;;;6185295;23;20001;-73
2021/12/05 12:21:27;;;;;;;0.65;0.65;;;9.60;91.00;;;;;;6183553;23;20509;-73
2021/12/05 12:23:57;;;;;;;0.50;0.50;;;9.60;91.00;;;;;;6183613;23;20052;-73
2021/12/05 12:26:24;;;;;;;0.47;0.47;;;9.60;89.80;;;;;;6185178;23;20342;-73
2021/12/05 12:28:55;;;;;;;0.50;0.45;;;9.60;87.80;;;;;;6185395;23;20468;-73
2021/12/05 12:31:28;;;;;;;0.47;0.47;;;9.60;88.40;;;;;;6183797;23;20058;-73
2021/12/05 12:34:00;;;;;;;0.70;0.70;;;9.60;88.40;;;;;;6185221;23;20002;-73
2021/12/05 12:36:42;;;;;;;0.50;0.50;;;9.60;89.30;;;;;;6185348;23;20429;-73
2021/12/05 12:39:17;;;;;;;2.03;0.68;;;9.60;89.40;;;;;;6183946;23;20007;-73
2021/12/05 12:42:19;;;;;;;1.00;1.00;;;9.60;88.20;;;;;;6183570;23;20464;-74
2021/12/05 12:45:18;;;;;;;1.08;0.40;;;9.60;87.70;;;;;;6177301;23;20011;-73
2021/12/05 12:47:50;;;;;;;0.70;0.70;;;9.60;85.00;;;;;;6185285;23;20384;-73
2021/12/05 12:50:29;;;;;;;1.02;0.50;;;9.70;84.50;;;;;;6185136;23;20005;-73
2021/12/05 12:53:17;;;;;;;2.83;1.20;;;9.70;84.70;;;;;;6184892;23;20001;-73
2021/12/05 12:55:56;;;;;;;0.93;0.93;;;9.60;83.80;;;;;;6184879;23;20028;-73
2021/12/05 12:58:36;;;;;;;1.20;1.10;;;9.70;83.60;;;;;;6184814;23;20005;-73
2021/12/05 13:01:19;;;;;;;2.50;0.60;;;9.70;83.20;;;;;;6185468;23;20009;-73
2021/12/05 13:12:44;;;;;;;2.47;1.27;;;9.70;84.10;;;;;;6185800;23;20016;-73
2021/12/05 13:15:12;;;;;;;3.88;1.05;;;9.70;84.20;;;;;;6185650;23;20055;-73
2021/12/05 13:17:44;;;;;;;2.15;0.70;;;9.70;83.70;;;;;;6186025;23;20009;-73
2021/12/05 13:20:16;;;;;;;1.38;0.85;;;9.70;83.20;;;;;;6185780;23;20001;-73
2021/12/05 13:23:24;;;;;;;0.52;0.52;;;9.70;84.90;;;;;;6184283;23;20044;-73
2021/12/05 13:26:14;;;;;;;0.80;0.80;;;9.60;84.20;;;;;;6170250;23;20445;-73
2021/12/05 13:28:45;;;;;;;0.95;0.80;;;9.60;83.10;;;;;;6185709;23;20429;-73
2021/12/05 13:31:30;;;;;;;0.52;0.52;;;9.60;83.90;;;;;;6185520;23;19997;-73
2021/12/05 13:34:14;;;;;;;0.70;0.70;;;9.50;83.10;;;;;;6184923;23;20025;-74
2021/12/05 13:36:42;;;;;;;1.17;0.70;;;9.50;85.30;;;;;;6182683;23;20317;-74
2021/12/05 13:39:46;;;;;;;0.80;0.70;;;9.50;84.40;;;;;;6185156;23;20005;-73
2021/12/05 13:42:18;;;;;;;1.38;1.10;;;9.50;83.70;;;;;;6185544;23;20080;-73
2021/12/05 13:45:14;;;;;;;2.53;1.23;;;9.40;83.20;;;;;;6185478;23;20001;-73
2021/12/05 13:47:51;;;;;;;3.75;1.33;;;9.40;83.10;;;;;;6185811;23;20028;-73
2021/12/05 13:50:22;;;;;;;2.28;0.80;;;9.40;82.50;;;;;;6185566;23;20059;-73
2021/12/05 13:52:56;;;;;;;1.30;1.20;;;9.40;83.70;;;;;;6183983;23;20005;-73
2021/12/05 13:55:53;;;;;;;5.18;2.67;;;9.40;84.20;;;;;;6185322;23;20005;-73
2021/12/05 14:01:15;;;;;;;0.70;0.70;;;9.30;86.80;;;;;;6185240;23;20005;-73
2021/12/05 14:03:46;;;;;;;3.13;1.70;;;9.30;86.30;;;;;;6183577;23;20421;-73
2021/12/05 14:06:42;;;;;;;0.90;0.90;;;9.30;86.10;;;;;;6185518;23;19997;-74
2021/12/05 14:09:10;;;;;;;3.70;2.20;;;9.30;85.10;;;;;;6185221;23;20429;-73
2021/12/05 14:11:44;;;;;;;1.15;1.10;;;9.30;86.80;;;;;;6183424;23;20456;-74
2021/12/05 14:14:10;;;;;;;6.00;3.92;;;9.30;84.70;;;;;;6184951;23;20000;-74
2021/12/05 14:16:39;;;;;;;1.90;1.65;;;9.30;83.30;;;;;;6185283;23;20358;-73
2021/12/05 14:19:14;;;;;;;5.50;4.20;;;9.20;85.50;;;;;;6185091;23;20001;-73
2021/12/05 14:21:43;;;;;;;17.08;10.95;;;9.20;90.10;;;;;;6185343;23;20009;-74
2021/12/05 14:24:11;;;;;;;20.80;11.98;;;9.20;98.20;;;;;;6185219;23;20032;-73
2021/12/05 14:26:39;;;;;;;23.23;14.27;;;9.10;99.90;;;;;;6185260;23;20421;-73
2021/12/05 14:29:15;;;;;;;24.33;13.85;;;9.10;99.90;;;;;;6185120;23;20032;-73
2021/12/05 14:31:57;;;;;;;25.70;14.98;;;9.00;99.90;;;;;;6183526;23;20637;-73
2021/12/05 14:34:23;;;;;;;26.23;16.07;;;9.00;99.90;;;;;;6185112;23;20008;-73
2021/12/05 14:36:54;;;;;;;27.55;16.20;;;9.00;99.90;;;;;;6184930;23;20132;-74
2021/12/05 14:39:25;;;;;;;27.25;15.98;;;8.90;99.90;;;;;;6182231;23;20452;-73
2021/12/05 14:41:55;;;;;;;27.77;16.95;;;8.90;99.90;;;;;;6182668;23;20005;-73
2021/12/05 14:44:22;;;;;;;27.23;17.08;;;8.80;99.90;;;;;;6183307;23;20080;-73
2021/12/05 14:46:54;;;;;;;24.67;16.00;;;8.80;99.90;;;;;;6183539;23;20052;-73
2021/12/05 14:49:22;;;;;;;28.40;16.88;;;8.80;99.90;;;;;;6183449;23;20008;-73
2021/12/05 14:51:49;;;;;;;26.92;16.17;;;8.70;99.90;;;;;;6183360;23;20380;-73
2021/12/05 14:54:28;;;;;;;25.60;15.77;;;8.70;99.90;;;;;;6183151;23;20001;-73
2021/12/05 14:56:55;;;;;;;30.77;17.65;;;8.60;99.90;;;;;;6181653;23;20425;-73
2021/12/05 14:59:21;;;;;;;29.77;18.38;;;8.60;99.90;;;;;;6181627;23;19997;-73
2021/12/05 15:01:53;;;;;;;28.80;17.73;;;8.60;99.90;;;;;;6181453;23;20238;-73
2021/12/05 15:04:22;;;;;;;30.35;18.05;;;8.60;99.90;;;;;;6181777;23;20020;-73
2021/12/05 15:06:48;;;;;;;33.15;18.77;;;8.50;99.90;;;;;;6181656;23;20508;-74
2021/12/05 15:09:20;;;;;;;29.70;18.25;;;8.50;99.90;;;;;;6181912;23;20012;-73
2021/12/05 15:12:10;;;;;;;36.33;19.17;;;8.50;99.90;;;;;;6182121;23;20460;-73
2021/12/05 15:14:40;;;;;;;34.75;21.77;;;8.50;99.90;;;;;;6180917;23;20028;-73
2021/12/05 15:17:18;;;;;;;33.45;21.40;;;8.40;99.90;;;;;;6183689;23;20067;-73
2021/12/05 15:19:47;;;;;;;36.65;21.45;;;8.40;99.90;;;;;;6182227;23;20008;-73
2021/12/05 15:22:14;;;;;;;39.97;23.48;;;8.30;99.90;;;;;;6183579;23;19997;-73
2021/12/05 15:24:48;;;;;;;43.55;24.55;;;8.30;99.90;;;;;;6183540;23;20076;-73
2021/12/05 15:27:16;;;;;;;49.53;24.65;;;8.30;99.90;;;;;;6183468;23;20032;-73
2021/12/05 15:29:53;;;;;;;44.78;24.17;;;8.20;99.90;;;;;;6183395;23;20005;-73
2021/12/05 15:32:24;;;;;;;51.42;29.30;;;8.20;99.90;;;;;;6183683;23;20009;-74
2021/12/05 15:34:52;;;;;;;48.70;25.90;;;8.20;99.90;;;;;;6183495;23;20402;-74
2021/12/05 15:37:18;;;;;;;42.08;24.52;;;8.10;99.90;;;;;;6181849;23;20434;-73
2021/12/05 15:39:46;;;;;;;53.65;29.80;;;8.10;99.90;;;;;;6183534;23;20001;-73
2021/12/05 15:42:17;;;;;;;48.00;27.30;;;8.00;99.90;;;;;;6183439;23;20076;-74
2021/12/05 15:44:44;;;;;;;63.60;32.85;;;8.00;99.90;;;;;;6182163;23;20389;-73
2021/12/05 15:47:19;;;;;;;56.05;29.63;;;7.90;99.90;;;;;;6183745;23;20001;-73
2021/12/05 15:50:02;;;;;;;47.63;27.42;;;7.80;99.90;;;;;;6183616;23;20005;-73
2021/12/05 15:52:34;;;;;;;46.95;27.05;;;7.80;99.90;;;;;;6183476;23;20068;-73
2021/12/05 15:55:02;;;;;;;55.00;27.08;;;7.60;99.90;;;;;;6181910;23;20005;-75
2021/12/05 15:57:35;;;;;;;52.03;27.85;;;7.60;99.90;;;;;;6183401;23;20080;-73
2021/12/05 16:00:11;;;;;;;50.47;27.75;;;7.60;99.90;;;;;;6183529;23;20051;-73
2021/12/05 16:02:37;;;;;;;50.70;28.70;;;7.60;99.90;;;;;;6181465;23;20017;-73
2021/12/05 16:05:12;;;;;;;53.05;30.52;;;7.60;99.90;;;;;;6183533;23;20005;-73
2021/12/05 16:07:37;;;;;;;52.83;30.38;;;7.50;99.90;;;;;;6183517;23;20345;-73
2021/12/05 16:10:13;;;;;;;53.90;29.27;;;7.50;99.90;;;;;;6183695;23;20075;-73
2021/12/05 16:12:43;;;;;;;48.92;27.60;;;7.50;99.90;;;;;;6183520;23;20013;-73
2021/12/05 16:15:09;;;;;;;52.88;26.70;;;7.40;99.90;;;;;;6183401;23;20009;-73
2021/12/05 16:17:36;;;;;;;52.83;28.58;;;7.20;99.90;;;;;;6183563;23;20001;-73
2021/12/05 16:20:06;;;;;;;55.13;31.23;;;7.10;99.90;;;;;;6182964;23;20119;-73
2021/12/05 16:22:32;;;;;;;58.13;32.17;;;7.00;99.90;;;;;;6181645;23;20006;-73
2021/12/05 16:25:14;;;;;;;53.30;31.85;;;6.90;99.90;;;;;;6183420;23;20344;-73
2021/12/05 16:27:51;;;;;;;49.97;30.23;;;6.80;99.90;;;;;;6183304;23;20468;-73
2021/12/05 16:30:25;;;;;;;48.58;32.42;;;6.70;99.90;;;;;;6183286;23;20009;-73
2021/12/05 16:32:52;;;;;;;53.30;31.05;;;6.50;99.90;;;;;;6183141;23;20341;-73
2021/12/05 16:35:41;;;;;;;47.42;29.75;;;6.40;99.90;;;;;;6183326;23;20032;-73
2021/12/05 16:38:22;;;;;;;47.00;27.60;;;6.40;99.90;;;;;;6181637;23;20008;-73
2021/12/05 16:40:56;;;;;;;53.25;29.88;;;6.50;99.90;;;;;;6182867;23;20009;-73
2021/12/05 16:43:22;;;;;;;48.28;28.45;;;6.30;99.90;;;;;;6185183;23;20076;-73
2021/12/05 16:45:48;;;;;;;40.42;25.52;;;6.30;99.90;;;;;;6185252;23;20009;-73
2021/12/05 16:48:18;;;;;;;42.10;24.45;;;6.30;99.90;;;;;;6183407;23;20472;-73
2021/12/05 16:50:44;;;;;;;38.00;24.88;;;6.30;99.90;;;;;;6185081;23;20001;-73
2021/12/05 16:53:13;;;;;;;35.42;22.42;;;6.30;99.90;;;;;;6183402;23;20009;-73
2021/12/05 16:55:45;;;;;;;38.60;21.50;;;6.20;99.90;;;;;;6185217;23;20468;-73
2021/12/05 16:58:17;;;;;;;33.08;20.38;;;6.30;99.90;;;;;;6185056;23;20028;-72
2021/12/05 17:00:51;;;;;;;33.30;21.33;;;6.20;99.90;;;;;;6184980;23;20001;-73
2021/12/05 17:03:19;;;;;;;31.70;20.38;;;6.20;99.90;;;;;;6184682;23;20009;-73
2021/12/05 17:05:48;;;;;;;33.25;20.05;;;6.30;99.90;;;;;;6184831;23;20008;-73
2021/12/05 17:08:34;;;;;;;27.83;18.45;;;6.20;99.90;;;;;;6185019;23;20012;-73
2021/12/05 17:11:08;;;;;;;35.15;19.77;;;6.20;99.90;;;;;;6184936;23;20001;-73
2021/12/05 17:13:47;;;;;;;33.08;18.90;;;6.10;99.90;;;;;;6184638;23;20005;-73
2021/12/05 17:16:25;;;;;;;32.58;20.55;;;6.10;99.90;;;;;;6185011;23;20028;-73
2021/12/05 17:18:57;;;;;;;28.48;18.95;;;6.00;99.90;;;;;;6184828;23;20028;-73
2021/12/05 17:21:34;;;;;;;29.98;18.95;;;6.00;99.90;;;;;;6183252;23;20013;-73
2021/12/05 17:24:08;;;;;;;29.77;18.27;;;6.00;99.90;;;;;;6184784;23;20001;-73
2021/12/05 17:26:35;;;;;;;30.13;18.73;;;6.00;99.90;;;;;;6184971;23;20001;-73
2021/12/05 17:29:23;;;;;;;27.00;18.35;;;5.90;99.90;;;;;;6184593;23;20052;-72
2021/12/05 17:32:08;;;;;;;33.15;19.80;;;5.90;99.90;;;;;;6183224;23;20326;-73
2021/12/05 17:34:37;;;;;;;34.50;21.55;;;5.90;99.90;;;;;;6184802;23;20009;-73
2021/12/05 17:37:13;;;;;;;39.17;24.17;;;5.90;99.90;;;;;;6185176;23;20020;-73
2021/12/05 17:39:42;;;;;;;35.22;21.75;;;5.90;99.90;;;;;;6185230;23;20035;-73
2021/12/05 17:42:22;;;;;;;31.90;20.27;;;5.90;99.90;;;;;;6184954;23;20005;-74
2021/12/05 17:44:51;;;;;;;34.13;20.17;;;5.80;99.90;;;;;;6185275;23;20005;-73
2021/12/05 17:47:18;;;;;;;31.98;19.83;;;5.80;99.90;;;;;;6184719;23;19997;-73
2021/12/05 17:49:50;;;;;;;27.30;17.92;;;5.70;99.90;;;;;;6183245;23;20036;-74
2021/12/05 17:52:17;;;;;;;;;;;5.70;99.90;;;;;;6185263;23;20076;-73
2021/12/05 17:54:59;;;;;;;35.30;18.70;;;5.70;99.90;;;;;;6184840;23;19905;-74
2021/12/05 17:57:38;;;;;;;32.42;19.27;;;5.70;99.90;;;;;;6183633;23;20008;-74
2021/12/05 18:00:33;;;;;;;31.42;18.95;;;5.60;99.90;;;;;;6184701;23;19998;-74
2021/12/05 18:03:01;;;;;;;31.45;19.02;;;5.70;99.90;;;;;;6182172;23;20823;-73
2021/12/05 18:05:37;;;;;;;32.00;18.58;;;5.60;99.90;;;;;;6178103;23;20036;-72
2021/12/05 18:08:10;;;;;;;34.42;21.63;;;5.60;99.90;;;;;;6178630;23;20024;-73
2021/12/05 18:10:48;;;;;;;14.55;9.18;;;5.60;99.90;;;;;;6178815;23;20433;-74
2021/12/05 18:13:20;;;;;;;38.45;21.25;;;6.20;99.90;;;;;;6180445;23;20064;-74
2021/12/05 18:15:54;;;;;;;;;;;6.50;99.90;;;;;;6181079;23;20001;-73
2021/12/05 18:18:21;;;;;;;33.40;21.42;;;6.10;99.90;;;;;;6181073;23;19900;-73
2021/12/05 18:20:48;;;;;;;30.95;19.55;;;5.90;99.90;;;;;;6180378;23;20000;-73
2021/12/05 18:23:15;;;;;;;30.83;17.90;;;5.80;99.90;;;;;;6179998;23;20012;-74
2021/12/05 18:25:41;;;;;;;31.15;18.67;;;5.70;99.90;;;;;;6180888;23;20001;-73
2021/12/05 18:28:08;;;;;;;27.83;16.67;;;5.60;99.90;;;;;;6179802;23;20096;-73
2021/12/05 18:30:36;;;;;;;31.52;19.33;;;5.60;99.90;;;;;;6180192;23;20341;-73
2021/12/05 18:33:05;;;;;;;30.83;18.73;;;5.50;99.90;;;;;;6180159;23;20005;-73
2021/12/05 18:35:32;;;;;;;30.67;17.60;;;5.40;99.90;;;;;;6179239;23;20009;-74
2021/12/05 18:38:04;;;;;;;30.77;18.00;;;5.30;99.90;;;;;;6178423;23;20001;-74
2021/12/05 18:40:31;;;;;;;31.50;18.17;;;5.30;99.90;;;;;;6179132;23;20429;-73
2021/12/05 18:42:58;;;;;;;24.02;15.30;;;5.30;99.90;;;;;;6180248;23;20024;-74
2021/12/05 18:45:26;;;;;;;23.02;14.50;;;5.20;99.90;;;;;;6177895;23;20004;-74
2021/12/05 18:47:55;;;;;;;22.60;13.93;;;5.10;99.90;;;;;;6178948;23;20060;-73
2021/12/05 18:50:21;;;;;;;17.35;10.75;;;5.00;99.90;;;;;;6178794;23;20012;-73
2021/12/05 18:52:47;;;;;;;34.85;16.83;;;5.00;99.90;;;;;;6179873;23;20016;-73
2021/12/05 18:55:17;;;;;;;22.90;13.70;;;5.10;99.90;;;;;;6178932;23;20152;-74
2021/12/05 18:57:44;;;;;;;20.45;12.55;;;5.10;99.90;;;;;;6179277;23;19997;-73
2021/12/05 19:00:20;;;;;;;15.15;10.70;;;5.00;99.90;;;;;;6178228;23;20084;-74
2021/12/05 19:05:39;;;;;;;13.57;9.13;;;4.90;99.90;;;;;;6179585;23;20072;-73